sensor_id;sensor_type;location;lat;lon;timestamp;temperature;humidity
58339;DHT22;48278;52.704;6.536;2022-12-13T00:00:04;-4.60;99.90
58339;DHT22;48278;52.704;6.536;2022-12-13T00:02:30;-4.70;99.90
58339;DHT22;48278;52.704;6.536;2022-12-13T00:04:56;-4.60;99.90
58339;DHT22;48278;52.704;6.536;2022-12-13T00:07:22;-4.70;99.90
58339;DHT22;48278;52.704;6.536;2022-12-13T00:09:47;-4.70;99.90
58339;DHT22;48278;52.704;6.536;2022-12-13T00:12:13;-4.70;99.90
58339;DHT22;48278;52.704;6.536;2022-12-13T00:14:39;-4.70;99.90
58339;DHT22;48278;52.704;6.536;2022-12-13T00:17:05;-4.80;99.90
58339;DHT22;48278;52.704;6.536;2022-12-13T00:19:31;-4.80;99.90
58339;DHT22;48278;52.704;6.536;2022-12-13T00:21:56;-4.80;99.90
58339;DHT22;48278;52.704;6.536;2022-12-13T00:24:22;-4.80;99.90
58339;DHT22;48278;52.704;6.536;2022-12-13T00:26:48;-4.80;99.90
58339;DHT22;48278;52.704;6.536;2022-12-13T00:29:14;-4.90;99.90
58339;DHT22;48278;52.704;6.536;2022-12-13T00:31:39;-4.90;99.90
58339;DHT22;48278;52.704;6.536;2022-12-13T00:34:05;-4.90;99.90
58339;DHT22;48278;52.704;6.536;2022-12-13T00:36:31;-4.90;99.90
58339;DHT22;48278;52.704;6.536;2022-12-13T00:38:57;-4.90;99.90
58339;DHT22;48278;52.704;6.536;2022-12-13T00:41:35;-4.90;99.90
58339;DHT22;48278;52.704;6.536;2022-12-13T00:44:02;-4.90;99.90
58339;DHT22;48278;52.704;6.536;2022-12-13T00:46:28;-5.00;99.90
58339;DHT22;48278;52.704;6.536;2022-12-13T00:48:57;-5.00;99.90
58339;DHT22;48278;52.704;6.536;2022-12-13T00:51:24;-4.90;99.90
58339;DHT22;48278;52.704;6.536;2022-12-13T00:53:50;-5.00;99.90
58339;DHT22;48278;52.704;6.536;2022-12-13T00:56:19;-5.00;99.90
58339;DHT22;48278;52.704;6.536;2022-12-13T00:58:47;-5.00;99.90
58339;DHT22;48278;52.704;6.536;2022-12-13T01:01:15;-5.10;99.90
58339;DHT22;48278;52.704;6.536;2022-12-13T01:03:41;-5.00;99.90
58339;DHT22;48278;52.704;6.536;2022-12-13T01:06:12;-5.10;99.90
58339;DHT22;48278;52.704;6.536;2022-12-13T01:08:38;-5.10;99.90
58339;DHT22;48278;52.704;6.536;2022-12-13T01:11:05;-5.10;99.90
58339;DHT22;48278;52.704;6.536;2022-12-13T01:13:31;-5.10;99.90
58339;DHT22;48278;52.704;6.536;2022-12-13T01:15:57;-5.10;99.90
58339;DHT22;48278;52.704;6.536;2022-12-13T01:18:23;-5.10;99.90
58339;DHT22;48278;52.704;6.536;2022-12-13T01:21:10;-5.10;99.90
58339;DHT22;48278;52.704;6.536;2022-12-13T01:23:38;-5.10;99.90
58339;DHT22;48278;52.704;6.536;2022-12-13T01:26:06;-5.20;99.90
58339;DHT22;48278;52.704;6.536;2022-12-13T01:28:32;-5.20;99.90
58339;DHT22;48278;52.704;6.536;2022-12-13T01:31:01;-5.20;99.90
58339;DHT22;48278;52.704;6.536;2022-12-13T01:33:28;-5.20;99.90
58339;DHT22;48278;52.704;6.536;2022-12-13T01:35:55;-5.20;99.90
58339;DHT22;48278;52.704;6.536;2022-12-13T01:38:21;-5.20;99.90
58339;DHT22;48278;52.704;6.536;2022-12-13T01:40:52;-5.10;99.90
58339;DHT22;48278;52.704;6.536;2022-12-13T01:46:03;-5.20;99.90
58339;DHT22;48278;52.704;6.536;2022-12-13T01:48:32;-5.20;99.90
58339;DHT22;48278;52.704;6.536;2022-12-13T01:51:01;-5.20;99.90
58339;DHT22;48278;52.704;6.536;2022-12-13T01:53:30;-5.20;99.90
58339;DHT22;48278;52.704;6.536;2022-12-13T01:56:02;-5.20;99.90
58339;DHT22;48278;52.704;6.536;2022-12-13T01:58:30;-5.20;99.90
58339;DHT22;48278;52.704;6.536;2022-12-13T02:00:58;-5.20;99.90
58339;DHT22;48278;52.704;6.536;2022-12-13T02:03:25;-5.20;99.90
58339;DHT22;48278;52.704;6.536;2022-12-13T02:06:02;-5.20;99.90
58339;DHT22;48278;52.704;6.536;2022-12-13T02:08:30;-5.30;99.90
58339;DHT22;48278;52.704;6.536;2022-12-13T02:10:56;-5.30;99.90
58339;DHT22;48278;52.704;6.536;2022-12-13T02:13:22;-5.30;99.90
58339;DHT22;48278;52.704;6.536;2022-12-13T02:21:45;-5.30;99.90
58339;DHT22;48278;52.704;6.536;2022-12-13T02:24:40;-5.30;99.90
58339;DHT22;48278;52.704;6.536;2022-12-13T02:35:59;-5.40;99.90
58339;DHT22;48278;52.704;6.536;2022-12-13T02:41:37;-5.50;99.90
58339;DHT22;48278;52.704;6.536;2022-12-13T02:46:42;-5.40;99.90
58339;DHT22;48278;52.704;6.536;2022-12-13T02:49:14;-5.30;99.90
58339;DHT22;48278;52.704;6.536;2022-12-13T02:51:40;-5.40;99.90
58339;DHT22;48278;52.704;6.536;2022-12-13T02:54:07;-5.40;99.90
58339;DHT22;48278;52.704;6.536;2022-12-13T02:56:33;-5.40;99.90
58339;DHT22;48278;52.704;6.536;2022-12-13T02:59:01;-5.40;99.90
58339;DHT22;48278;52.704;6.536;2022-12-13T03:07:11;-5.50;99.90
58339;DHT22;48278;52.704;6.536;2022-12-13T03:10:05;-5.40;99.90
58339;DHT22;48278;52.704;6.536;2022-12-13T03:15:59;-5.40;99.90
58339;DHT22;48278;52.704;6.536;2022-12-13T03:18:26;-5.50;99.90
58339;DHT22;48278;52.704;6.536;2022-12-13T03:20:56;-5.50;99.90
58339;DHT22;48278;52.704;6.536;2022-12-13T03:23:23;-5.50;99.90
58339;DHT22;48278;52.704;6.536;2022-12-13T03:25:52;-5.50;99.90
58339;DHT22;48278;52.704;6.536;2022-12-13T03:28:18;-5.50;99.90
58339;DHT22;48278;52.704;6.536;2022-12-13T03:30:44;-5.60;99.90
58339;DHT22;48278;52.704;6.536;2022-12-13T03:33:10;-5.50;99.90
58339;DHT22;48278;52.704;6.536;2022-12-13T03:35:40;-5.60;99.90
58339;DHT22;48278;52.704;6.536;2022-12-13T03:38:06;-5.60;99.90
58339;DHT22;48278;52.704;6.536;2022-12-13T03:40:33;-5.60;99.90
58339;DHT22;48278;52.704;6.536;2022-12-13T03:43:00;-5.60;99.90
58339;DHT22;48278;52.704;6.536;2022-12-13T03:45:26;-5.70;99.90
58339;DHT22;48278;52.704;6.536;2022-12-13T03:47:52;-5.70;99.90
58339;DHT22;48278;52.704;6.536;2022-12-13T03:50:18;-5.70;99.90
58339;DHT22;48278;52.704;6.536;2022-12-13T03:52:44;-5.70;99.90
58339;DHT22;48278;52.704;6.536;2022-12-13T03:55:12;-5.70;99.90
58339;DHT22;48278;52.704;6.536;2022-12-13T03:57:38;-5.70;99.90
58339;DHT22;48278;52.704;6.536;2022-12-13T04:00:05;-5.70;99.90
58339;DHT22;48278;52.704;6.536;2022-12-13T04:02:31;-5.70;99.90
58339;DHT22;48278;52.704;6.536;2022-12-13T04:04:56;-5.80;99.90
58339;DHT22;48278;52.704;6.536;2022-12-13T04:07:22;-5.80;99.90
58339;DHT22;48278;52.704;6.536;2022-12-13T04:09:48;-5.80;99.90
58339;DHT22;48278;52.704;6.536;2022-12-13T04:12:13;-5.80;99.90
58339;DHT22;48278;52.704;6.536;2022-12-13T04:15:14;-5.80;99.90
58339;DHT22;48278;52.704;6.536;2022-12-13T04:17:40;-5.80;99.90
58339;DHT22;48278;52.704;6.536;2022-12-13T04:20:06;-5.70;99.90
58339;DHT22;48278;52.704;6.536;2022-12-13T04:22:32;-5.80;99.90
58339;DHT22;48278;52.704;6.536;2022-12-13T04:24:58;-5.80;99.90
58339;DHT22;48278;52.704;6.536;2022-12-13T04:27:23;-5.80;99.90
58339;DHT22;48278;52.704;6.536;2022-12-13T04:29:49;-5.90;99.90
58339;DHT22;48278;52.704;6.536;2022-12-13T04:32:15;-5.90;99.90
58339;DHT22;48278;52.704;6.536;2022-12-13T04:34:40;-5.90;99.90
58339;DHT22;48278;52.704;6.536;2022-12-13T04:37:06;-5.90;99.90
58339;DHT22;48278;52.704;6.536;2022-12-13T04:39:32;-5.90;99.90
58339;DHT22;48278;52.704;6.536;2022-12-13T04:41:58;-5.90;99.90
58339;DHT22;48278;52.704;6.536;2022-12-13T04:44:23;-5.90;99.90
58339;DHT22;48278;52.704;6.536;2022-12-13T04:46:49;-5.90;99.90
58339;DHT22;48278;52.704;6.536;2022-12-13T04:49:15;-5.90;99.90
58339;DHT22;48278;52.704;6.536;2022-12-13T04:51:41;-5.90;99.90
58339;DHT22;48278;52.704;6.536;2022-12-13T04:54:06;-5.90;99.90
58339;DHT22;48278;52.704;6.536;2022-12-13T04:56:32;-6.00;99.90
58339;DHT22;48278;52.704;6.536;2022-12-13T04:58:58;-5.90;99.90
58339;DHT22;48278;52.704;6.536;2022-12-13T05:01:24;-5.90;99.90
58339;DHT22;48278;52.704;6.536;2022-12-13T05:03:49;-6.00;99.90
58339;DHT22;48278;52.704;6.536;2022-12-13T05:06:15;-6.00;99.90
58339;DHT22;48278;52.704;6.536;2022-12-13T05:08:41;-6.00;99.90
58339;DHT22;48278;52.704;6.536;2022-12-13T05:11:09;-6.00;99.90
58339;DHT22;48278;52.704;6.536;2022-12-13T05:13:34;-6.00;99.90
58339;DHT22;48278;52.704;6.536;2022-12-13T05:16:03;-6.00;99.90
58339;DHT22;48278;52.704;6.536;2022-12-13T05:18:30;-6.10;99.90
58339;DHT22;48278;52.704;6.536;2022-12-13T05:20:55;-6.10;99.90
58339;DHT22;48278;52.704;6.536;2022-12-13T05:23:23;-6.10;99.90
58339;DHT22;48278;52.704;6.536;2022-12-13T05:25:52;-6.20;99.90
58339;DHT22;48278;52.704;6.536;2022-12-13T05:28:18;-6.10;99.90
58339;DHT22;48278;52.704;6.536;2022-12-13T05:30:44;-6.10;99.90
58339;DHT22;48278;52.704;6.536;2022-12-13T05:33:10;-6.10;99.90
58339;DHT22;48278;52.704;6.536;2022-12-13T05:35:36;-6.10;99.90
58339;DHT22;48278;52.704;6.536;2022-12-13T05:38:02;-6.10;99.90
58339;DHT22;48278;52.704;6.536;2022-12-13T05:40:29;-6.10;99.90
58339;DHT22;48278;52.704;6.536;2022-12-13T05:42:55;-6.10;99.90
58339;DHT22;48278;52.704;6.536;2022-12-13T05:45:22;-6.10;99.90
58339;DHT22;48278;52.704;6.536;2022-12-13T05:47:47;-6.10;99.90
58339;DHT22;48278;52.704;6.536;2022-12-13T05:50:15;-6.10;99.90
58339;DHT22;48278;52.704;6.536;2022-12-13T05:52:44;-6.10;99.90
58339;DHT22;48278;52.704;6.536;2022-12-13T05:55:11;-6.10;99.90
58339;DHT22;48278;52.704;6.536;2022-12-13T05:57:37;-6.10;99.90
58339;DHT22;48278;52.704;6.536;2022-12-13T06:00:05;-6.10;99.90
58339;DHT22;48278;52.704;6.536;2022-12-13T06:02:30;-6.10;99.90
58339;DHT22;48278;52.704;6.536;2022-12-13T06:04:56;-6.10;99.90
58339;DHT22;48278;52.704;6.536;2022-12-13T06:07:22;-6.10;99.90
58339;DHT22;48278;52.704;6.536;2022-12-13T06:09:48;-6.10;99.90
58339;DHT22;48278;52.704;6.536;2022-12-13T06:12:13;-6.10;99.90
58339;DHT22;48278;52.704;6.536;2022-12-13T06:14:40;-6.10;99.90
58339;DHT22;48278;52.704;6.536;2022-12-13T06:17:06;-6.10;99.90
58339;DHT22;48278;52.704;6.536;2022-12-13T06:19:32;-6.10;99.90
58339;DHT22;48278;52.704;6.536;2022-12-13T06:21:58;-6.10;99.90
58339;DHT22;48278;52.704;6.536;2022-12-13T06:24:24;-6.10;99.90
58339;DHT22;48278;52.704;6.536;2022-12-13T06:26:52;-6.10;99.90
58339;DHT22;48278;52.704;6.536;2022-12-13T06:29:20;-6.10;99.90
58339;DHT22;48278;52.704;6.536;2022-12-13T06:31:46;-6.00;99.90
58339;DHT22;48278;52.704;6.536;2022-12-13T06:34:12;-6.10;99.90
58339;DHT22;48278;52.704;6.536;2022-12-13T06:36:38;-6.10;99.90
58339;DHT22;48278;52.704;6.536;2022-12-13T06:39:05;-6.10;99.90
58339;DHT22;48278;52.704;6.536;2022-12-13T06:41:32;-6.10;99.90
58339;DHT22;48278;52.704;6.536;2022-12-13T06:43:58;-6.10;99.90
58339;DHT22;48278;52.704;6.536;2022-12-13T06:46:24;-6.10;99.90
58339;DHT22;48278;52.704;6.536;2022-12-13T06:48:51;-6.10;99.90
58339;DHT22;48278;52.704;6.536;2022-12-13T06:51:17;-6.10;99.90
58339;DHT22;48278;52.704;6.536;2022-12-13T06:53:43;-6.10;99.90
58339;DHT22;48278;52.704;6.536;2022-12-13T06:56:10;-6.00;99.90
58339;DHT22;48278;52.704;6.536;2022-12-13T06:58:37;-6.10;99.90
58339;DHT22;48278;52.704;6.536;2022-12-13T07:01:09;-6.10;99.90
58339;DHT22;48278;52.704;6.536;2022-12-13T07:03:36;-6.10;99.90
58339;DHT22;48278;52.704;6.536;2022-12-13T07:06:11;-6.00;99.90
58339;DHT22;48278;52.704;6.536;2022-12-13T07:08:39;-6.00;99.90
58339;DHT22;48278;52.704;6.536;2022-12-13T07:11:04;-6.00;99.90
58339;DHT22;48278;52.704;6.536;2022-12-13T07:13:31;-6.00;99.90
58339;DHT22;48278;52.704;6.536;2022-12-13T07:15:59;-6.00;99.90
58339;DHT22;48278;52.704;6.536;2022-12-13T07:18:25;-6.00;99.90
58339;DHT22;48278;52.704;6.536;2022-12-13T07:20:51;-6.00;99.90
58339;DHT22;48278;52.704;6.536;2022-12-13T07:23:17;-6.00;99.90
58339;DHT22;48278;52.704;6.536;2022-12-13T07:25:53;-5.90;99.90
58339;DHT22;48278;52.704;6.536;2022-12-13T07:28:20;-5.90;99.90
58339;DHT22;48278;52.704;6.536;2022-12-13T07:30:46;-5.90;99.90
58339;DHT22;48278;52.704;6.536;2022-12-13T07:33:13;-5.90;99.90
58339;DHT22;48278;52.704;6.536;2022-12-13T07:35:39;-5.90;99.90
58339;DHT22;48278;52.704;6.536;2022-12-13T07:38:06;-5.80;99.90
58339;DHT22;48278;52.704;6.536;2022-12-13T07:40:33;-5.80;99.90
58339;DHT22;48278;52.704;6.536;2022-12-13T07:42:59;-5.80;99.90
58339;DHT22;48278;52.704;6.536;2022-12-13T07:45:25;-5.80;99.90
58339;DHT22;48278;52.704;6.536;2022-12-13T07:47:50;-5.60;99.90
58339;DHT22;48278;52.704;6.536;2022-12-13T07:50:16;-5.70;99.90
58339;DHT22;48278;52.704;6.536;2022-12-13T07:52:48;-5.70;99.90
58339;DHT22;48278;52.704;6.536;2022-12-13T07:55:14;-5.70;99.90
58339;DHT22;48278;52.704;6.536;2022-12-13T07:57:40;-5.70;99.90
58339;DHT22;48278;52.704;6.536;2022-12-13T08:00:07;-5.70;99.90
58339;DHT22;48278;52.704;6.536;2022-12-13T08:02:33;-5.70;99.90
58339;DHT22;48278;52.704;6.536;2022-12-13T08:04:58;-5.70;99.90
58339;DHT22;48278;52.704;6.536;2022-12-13T08:07:24;-5.70;99.90
58339;DHT22;48278;52.704;6.536;2022-12-13T08:09:50;-5.70;99.90
58339;DHT22;48278;52.704;6.536;2022-12-13T08:12:16;-5.60;99.90
58339;DHT22;48278;52.704;6.536;2022-12-13T08:14:41;-5.60;99.90
58339;DHT22;48278;52.704;6.536;2022-12-13T08:17:07;-5.50;99.90
58339;DHT22;48278;52.704;6.536;2022-12-13T08:19:33;-5.50;99.90
58339;DHT22;48278;52.704;6.536;2022-12-13T08:21:59;-5.50;99.90
58339;DHT22;48278;52.704;6.536;2022-12-13T08:24:26;-5.40;99.90
58339;DHT22;48278;52.704;6.536;2022-12-13T08:26:53;-5.40;99.90
58339;DHT22;48278;52.704;6.536;2022-12-13T08:29:19;-5.40;99.90
58339;DHT22;48278;52.704;6.536;2022-12-13T08:31:45;-5.30;99.90
58339;DHT22;48278;52.704;6.536;2022-12-13T08:34:11;-5.20;99.90
58339;DHT22;48278;52.704;6.536;2022-12-13T08:36:36;-5.10;99.90
58339;DHT22;48278;52.704;6.536;2022-12-13T08:39:02;-5.20;99.90
58339;DHT22;48278;52.704;6.536;2022-12-13T08:41:29;-5.20;99.90
58339;DHT22;48278;52.704;6.536;2022-12-13T08:43:55;-5.10;99.90
58339;DHT22;48278;52.704;6.536;2022-12-13T08:46:21;-5.00;99.90
58339;DHT22;48278;52.704;6.536;2022-12-13T08:48:46;-5.00;99.90
58339;DHT22;48278;52.704;6.536;2022-12-13T08:51:13;-4.90;99.90
58339;DHT22;48278;52.704;6.536;2022-12-13T08:53:42;-4.90;99.90
58339;DHT22;48278;52.704;6.536;2022-12-13T08:56:10;-4.80;99.90
58339;DHT22;48278;52.704;6.536;2022-12-13T08:58:37;-4.70;99.90
58339;DHT22;48278;52.704;6.536;2022-12-13T09:01:09;-4.70;99.90
58339;DHT22;48278;52.704;6.536;2022-12-13T09:03:36;-4.60;99.90
58339;DHT22;48278;52.704;6.536;2022-12-13T09:06:11;-4.60;99.90
58339;DHT22;48278;52.704;6.536;2022-12-13T09:08:37;-4.50;99.90
58339;DHT22;48278;52.704;6.536;2022-12-13T09:11:05;-4.50;99.90
58339;DHT22;48278;52.704;6.536;2022-12-13T09:13:33;-4.40;99.90
58339;DHT22;48278;52.704;6.536;2022-12-13T09:16:04;-4.30;99.90
58339;DHT22;48278;52.704;6.536;2022-12-13T09:18:30;-4.30;99.90
58339;DHT22;48278;52.704;6.536;2022-12-13T09:20:56;-4.30;99.90
58339;DHT22;48278;52.704;6.536;2022-12-13T09:23:21;-4.20;99.90
58339;DHT22;48278;52.704;6.536;2022-12-13T09:25:55;-4.00;99.90
58339;DHT22;48278;52.704;6.536;2022-12-13T09:28:21;-4.10;99.90
58339;DHT22;48278;52.704;6.536;2022-12-13T09:30:48;-4.00;99.90
58339;DHT22;48278;52.704;6.536;2022-12-13T09:33:14;-4.00;99.90
58339;DHT22;48278;52.704;6.536;2022-12-13T09:35:39;-3.90;99.90
58339;DHT22;48278;52.704;6.536;2022-12-13T09:38:05;-3.90;99.90
58339;DHT22;48278;52.704;6.536;2022-12-13T09:40:33;-3.80;99.90
58339;DHT22;48278;52.704;6.536;2022-12-13T09:42:59;-3.80;99.90
58339;DHT22;48278;52.704;6.536;2022-12-13T09:45:27;-3.70;99.90
58339;DHT22;48278;52.704;6.536;2022-12-13T09:47:54;-3.60;99.90
58339;DHT22;48278;52.704;6.536;2022-12-13T09:50:28;-3.60;99.90
58339;DHT22;48278;52.704;6.536;2022-12-13T09:52:55;-3.60;99.90
58339;DHT22;48278;52.704;6.536;2022-12-13T09:55:25;-3.50;99.90
58339;DHT22;48278;52.704;6.536;2022-12-13T09:57:53;-3.50;99.90
58339;DHT22;48278;52.704;6.536;2022-12-13T10:00:22;-3.40;99.90
58339;DHT22;48278;52.704;6.536;2022-12-13T10:02:56;-3.40;99.90
58339;DHT22;48278;52.704;6.536;2022-12-13T10:05:36;-3.30;99.90
58339;DHT22;48278;52.704;6.536;2022-12-13T10:08:20;-3.30;99.90
58339;DHT22;48278;52.704;6.536;2022-12-13T10:10:51;-3.20;99.90
58339;DHT22;48278;52.704;6.536;2022-12-13T10:13:31;-3.20;99.90
58339;DHT22;48278;52.704;6.536;2022-12-13T10:16:05;-3.10;99.90
58339;DHT22;48278;52.704;6.536;2022-12-13T10:18:35;-3.00;99.90
58339;DHT22;48278;52.704;6.536;2022-12-13T10:21:19;-2.90;99.90
58339;DHT22;48278;52.704;6.536;2022-12-13T10:23:52;-2.90;99.90
58339;DHT22;48278;52.704;6.536;2022-12-13T10:26:18;-2.80;99.90
58339;DHT22;48278;52.704;6.536;2022-12-13T10:28:44;-2.90;99.90
58339;DHT22;48278;52.704;6.536;2022-12-13T10:31:17;-2.80;99.90
58339;DHT22;48278;52.704;6.536;2022-12-13T10:33:53;-2.70;99.90
58339;DHT22;48278;52.704;6.536;2022-12-13T10:36:31;-2.70;99.90
58339;DHT22;48278;52.704;6.536;2022-12-13T10:38:58;-2.60;99.90
58339;DHT22;48278;52.704;6.536;2022-12-13T10:41:37;-2.60;99.90
58339;DHT22;48278;52.704;6.536;2022-12-13T10:49:58;-2.50;99.90
58339;DHT22;48278;52.704;6.536;2022-12-13T10:55:02;-2.30;99.90
58339;DHT22;48278;52.704;6.536;2022-12-13T10:57:29;-2.30;99.90
58339;DHT22;48278;52.704;6.536;2022-12-13T10:59:55;-2.20;99.90
58339;DHT22;48278;52.704;6.536;2022-12-13T11:02:33;-2.20;99.90
58339;DHT22;48278;52.704;6.536;2022-12-13T11:05:21;-2.00;99.90
58339;DHT22;48278;52.704;6.536;2022-12-13T11:07:47;-2.00;99.90
58339;DHT22;48278;52.704;6.536;2022-12-13T11:12:45;-2.00;99.90
58339;DHT22;48278;52.704;6.536;2022-12-13T11:15:22;-2.00;99.90
58339;DHT22;48278;52.704;6.536;2022-12-13T11:17:51;-2.00;99.90
58339;DHT22;48278;52.704;6.536;2022-12-13T11:20:36;-2.00;99.90
58339;DHT22;48278;52.704;6.536;2022-12-13T11:25:39;-1.70;99.90
58339;DHT22;48278;52.704;6.536;2022-12-13T11:28:17;-1.90;99.90
58339;DHT22;48278;52.704;6.536;2022-12-13T11:31:04;-1.80;99.90
58339;DHT22;48278;52.704;6.536;2022-12-13T11:33:54;-1.80;99.90
58339;DHT22;48278;52.704;6.536;2022-12-13T11:39:33;-1.70;99.90
58339;DHT22;48278;52.704;6.536;2022-12-13T11:48:03;-1.60;99.90
58339;DHT22;48278;52.704;6.536;2022-12-13T11:50:43;-1.60;99.90
58339;DHT22;48278;52.704;6.536;2022-12-13T11:56:10;-1.50;99.90
58339;DHT22;48278;52.704;6.536;2022-12-13T12:01:28;-1.50;99.90
58339;DHT22;48278;52.704;6.536;2022-12-13T12:04:22;-1.40;99.90
58339;DHT22;48278;52.704;6.536;2022-12-13T12:09:20;-1.40;99.90
58339;DHT22;48278;52.704;6.536;2022-12-13T12:11:52;-1.40;99.90
58339;DHT22;48278;52.704;6.536;2022-12-13T12:14:42;-1.30;99.90
58339;DHT22;48278;52.704;6.536;2022-12-13T12:17:15;-1.30;99.90
58339;DHT22;48278;52.704;6.536;2022-12-13T12:19:45;-1.20;99.90
58339;DHT22;48278;52.704;6.536;2022-12-13T12:25:06;-1.30;99.90
58339;DHT22;48278;52.704;6.536;2022-12-13T12:28:03;-1.30;99.90
58339;DHT22;48278;52.704;6.536;2022-12-13T13:03:32;-1.20;99.90
58339;DHT22;48278;52.704;6.536;2022-12-13T13:09:03;-1.30;99.90
58339;DHT22;48278;52.704;6.536;2022-12-13T13:11:34;-1.30;99.90
58339;DHT22;48278;52.704;6.536;2022-12-13T13:16:34;-1.30;99.90
58339;DHT22;48278;52.704;6.536;2022-12-13T13:19:02;-1.30;99.90
58339;DHT22;48278;52.704;6.536;2022-12-13T13:21:41;-1.30;99.90
58339;DHT22;48278;52.704;6.536;2022-12-13T13:34:40;-1.30;99.90
58339;DHT22;48278;52.704;6.536;2022-12-13T13:37:25;-1.30;99.90
58339;DHT22;48278;52.704;6.536;2022-12-13T13:45:55;-1.30;99.90
58339;DHT22;48278;52.704;6.536;2022-12-13T13:57:05;-1.30;99.90
58339;DHT22;48278;52.704;6.536;2022-12-13T14:08:33;-1.50;99.90
58339;DHT22;48278;52.704;6.536;2022-12-13T14:23:27;-1.70;99.90
58339;DHT22;48278;52.704;6.536;2022-12-13T14:28:55;-1.80;99.90
58339;DHT22;48278;52.704;6.536;2022-12-13T14:31:44;-1.80;99.90
58339;DHT22;48278;52.704;6.536;2022-12-13T14:34:28;-1.90;99.90
58339;DHT22;48278;52.704;6.536;2022-12-13T14:39:21;-1.90;99.90
58339;DHT22;48278;52.704;6.536;2022-12-13T14:41:51;-2.00;99.90
58339;DHT22;48278;52.704;6.536;2022-12-13T14:44:31;-2.00;99.90
58339;DHT22;48278;52.704;6.536;2022-12-13T14:47:03;-2.00;99.90
58339;DHT22;48278;52.704;6.536;2022-12-13T14:49:32;-2.10;99.90
58339;DHT22;48278;52.704;6.536;2022-12-13T14:52:20;-2.20;99.90
58339;DHT22;48278;52.704;6.536;2022-12-13T14:54:59;-2.20;99.90
58339;DHT22;48278;52.704;6.536;2022-12-13T14:57:29;-2.30;99.90
58339;DHT22;48278;52.704;6.536;2022-12-13T14:59:58;-2.40;99.90
58339;DHT22;48278;52.704;6.536;2022-12-13T15:02:29;-2.50;99.90
58339;DHT22;48278;52.704;6.536;2022-12-13T15:05:00;-2.50;99.90
58339;DHT22;48278;52.704;6.536;2022-12-13T15:07:33;-2.50;99.90
58339;DHT22;48278;52.704;6.536;2022-12-13T15:10:36;-2.50;99.90
58339;DHT22;48278;52.704;6.536;2022-12-13T15:13:04;-2.50;99.90
58339;DHT22;48278;52.704;6.536;2022-12-13T15:15:35;-2.70;99.90
58339;DHT22;48278;52.704;6.536;2022-12-13T15:20:40;-2.80;99.90
58339;DHT22;48278;52.704;6.536;2022-12-13T15:23:29;-2.80;99.90
58339;DHT22;48278;52.704;6.536;2022-12-13T15:28:34;-3.00;99.90
58339;DHT22;48278;52.704;6.536;2022-12-13T15:31:01;-3.10;99.90
58339;DHT22;48278;52.704;6.536;2022-12-13T15:33:29;-3.10;99.90
58339;DHT22;48278;52.704;6.536;2022-12-13T15:38:34;-3.20;99.90
58339;DHT22;48278;52.704;6.536;2022-12-13T15:41:02;-3.20;99.90
58339;DHT22;48278;52.704;6.536;2022-12-13T15:43:35;-3.20;99.90
58339;DHT22;48278;52.704;6.536;2022-12-13T15:46:03;-3.30;99.90
58339;DHT22;48278;52.704;6.536;2022-12-13T15:48:34;-3.30;99.90
58339;DHT22;48278;52.704;6.536;2022-12-13T15:51:14;-3.30;99.90
58339;DHT22;48278;52.704;6.536;2022-12-13T15:54:15;-3.40;99.90
58339;DHT22;48278;52.704;6.536;2022-12-13T15:59:34;-3.40;99.90
58339;DHT22;48278;52.704;6.536;2022-12-13T16:02:01;-3.40;99.90
58339;DHT22;48278;52.704;6.536;2022-12-13T16:04:30;-3.40;99.90
58339;DHT22;48278;52.704;6.536;2022-12-13T16:07:00;-3.30;99.90
58339;DHT22;48278;52.704;6.536;2022-12-13T16:09:32;-3.40;99.90
58339;DHT22;48278;52.704;6.536;2022-12-13T16:12:00;-3.40;99.90
58339;DHT22;48278;52.704;6.536;2022-12-13T16:19:44;-3.60;99.90
58339;DHT22;48278;52.704;6.536;2022-12-13T16:22:10;-3.60;99.90
58339;DHT22;48278;52.704;6.536;2022-12-13T16:24:35;-3.60;99.90
58339;DHT22;48278;52.704;6.536;2022-12-13T16:27:01;-3.70;99.90
58339;DHT22;48278;52.704;6.536;2022-12-13T16:29:30;-3.70;99.90
58339;DHT22;48278;52.704;6.536;2022-12-13T16:31:56;-3.70;99.90
58339;DHT22;48278;52.704;6.536;2022-12-13T16:34:22;-3.70;99.90
58339;DHT22;48278;52.704;6.536;2022-12-13T16:36:47;-3.70;99.90
58339;DHT22;48278;52.704;6.536;2022-12-13T16:39:13;-3.80;99.90
58339;DHT22;48278;52.704;6.536;2022-12-13T16:41:43;-3.80;99.90
58339;DHT22;48278;52.704;6.536;2022-12-13T16:44:36;-3.80;99.90
58339;DHT22;48278;52.704;6.536;2022-12-13T16:47:00;-3.80;99.90
58339;DHT22;48278;52.704;6.536;2022-12-13T16:49:28;-3.80;99.90
58339;DHT22;48278;52.704;6.536;2022-12-13T16:51:55;-3.80;99.90
58339;DHT22;48278;52.704;6.536;2022-12-13T16:54:22;-3.80;99.90
58339;DHT22;48278;52.704;6.536;2022-12-13T16:56:49;-3.80;99.90
58339;DHT22;48278;52.704;6.536;2022-12-13T16:59:18;-3.90;99.90
58339;DHT22;48278;52.704;6.536;2022-12-13T17:01:44;-3.80;99.90
58339;DHT22;48278;52.704;6.536;2022-12-13T17:04:12;-3.80;99.90
58339;DHT22;48278;52.704;6.536;2022-12-13T17:06:38;-3.90;99.90
58339;DHT22;48278;52.704;6.536;2022-12-13T17:09:04;-3.80;99.90
58339;DHT22;48278;52.704;6.536;2022-12-13T17:11:36;-3.80;99.90
58339;DHT22;48278;52.704;6.536;2022-12-13T17:14:03;-3.70;99.90
58339;DHT22;48278;52.704;6.536;2022-12-13T17:16:29;-3.70;99.90
58339;DHT22;48278;52.704;6.536;2022-12-13T17:18:55;-3.70;99.90
58339;DHT22;48278;52.704;6.536;2022-12-13T17:21:23;-3.70;99.90
58339;DHT22;48278;52.704;6.536;2022-12-13T17:23:56;-3.70;99.90
58339;DHT22;48278;52.704;6.536;2022-12-13T17:26:23;-3.70;99.90
58339;DHT22;48278;52.704;6.536;2022-12-13T17:28:49;-3.80;99.90
58339;DHT22;48278;52.704;6.536;2022-12-13T17:31:15;-3.70;99.90
58339;DHT22;48278;52.704;6.536;2022-12-13T17:33:41;-3.70;99.90
58339;DHT22;48278;52.704;6.536;2022-12-13T17:36:09;-3.60;99.90
58339;DHT22;48278;52.704;6.536;2022-12-13T17:38:35;-3.80;99.90
58339;DHT22;48278;52.704;6.536;2022-12-13T17:41:01;-3.80;99.90
58339;DHT22;48278;52.704;6.536;2022-12-13T17:43:27;-3.80;99.90
58339;DHT22;48278;52.704;6.536;2022-12-13T17:45:55;-3.90;99.90
58339;DHT22;48278;52.704;6.536;2022-12-13T17:48:21;-3.80;99.90
58339;DHT22;48278;52.704;6.536;2022-12-13T17:50:47;-3.90;99.90
58339;DHT22;48278;52.704;6.536;2022-12-13T17:53:13;-3.80;99.90
58339;DHT22;48278;52.704;6.536;2022-12-13T17:55:38;-3.90;99.90
58339;DHT22;48278;52.704;6.536;2022-12-13T17:58:07;-3.90;99.90
58339;DHT22;48278;52.704;6.536;2022-12-13T18:00:36;-3.90;99.90
58339;DHT22;48278;52.704;6.536;2022-12-13T18:03:02;-3.90;99.90
58339;DHT22;48278;52.704;6.536;2022-12-13T18:05:28;-3.90;99.90
58339;DHT22;48278;52.704;6.536;2022-12-13T18:07:54;-3.80;99.90
58339;DHT22;48278;52.704;6.536;2022-12-13T18:10:19;-3.90;99.90
58339;DHT22;48278;52.704;6.536;2022-12-13T18:12:45;-3.80;99.90
58339;DHT22;48278;52.704;6.536;2022-12-13T18:15:11;-3.80;99.90
58339;DHT22;48278;52.704;6.536;2022-12-13T18:17:37;-3.80;99.90
58339;DHT22;48278;52.704;6.536;2022-12-13T18:20:03;-3.70;99.90
58339;DHT22;48278;52.704;6.536;2022-12-13T18:22:29;-3.70;99.90
58339;DHT22;48278;52.704;6.536;2022-12-13T18:24:54;-3.70;99.90
58339;DHT22;48278;52.704;6.536;2022-12-13T18:27:20;-3.60;99.90
58339;DHT22;48278;52.704;6.536;2022-12-13T18:29:46;-3.70;99.90
58339;DHT22;48278;52.704;6.536;2022-12-13T18:32:12;-3.70;99.90